Time;durP1;ratioP1;P1;durP2;ratioP2;P2;SDS_P1;SDS_P2;PMS_P1;PMS_P2;Temp;Humidity;BMP_temperature;BMP_pressure;BME280_temperature;BME280_humidity;BME280_pressure;Samples;Min_cycle;Max_cycle;Signal;HPM_P1;HPM_P2
2022/05/12 00:00:36;;;;;;;0.95;0.70;;;16.30;68.60;;;;;;5089563;28;20028;-63
2022/05/12 00:03:04;;;;;;;3.60;0.55;;;16.30;68.60;;;;;;5073092;28;20039;-64
2022/05/12 00:05:30;;;;;;;1.05;0.63;;;16.20;68.40;;;;;;5072925;28;20363;-64
2022/05/12 00:07:56;;;;;;;4.00;0.80;;;16.10;68.40;;;;;;5077404;28;20044;-60
2022/05/12 00:10:24;;;;;;;0.98;0.38;;;16.10;68.60;;;;;;5071543;28;20044;-61
2022/05/12 00:12:50;;;;;;;1.52;0.52;;;16.00;68.70;;;;;;5082062;28;20067;-60
2022/05/12 00:15:22;;;;;;;0.50;0.40;;;16.00;68.70;;;;;;5084557;28;20028;-64
2022/05/12 00:17:48;;;;;;;1.63;1.30;;;15.90;68.70;;;;;;5091136;28;20031;-64
2022/05/12 00:20:17;;;;;;;0.50;0.50;;;15.90;68.70;;;;;;5102981;28;20028;-64
2022/05/12 00:22:43;;;;;;;0.35;0.35;;;15.90;68.60;;;;;;5085043;28;20102;-64
2022/05/12 00:25:12;;;;;;;1.45;0.77;;;15.90;68.50;;;;;;5070270;28;20383;-61
2022/05/12 00:27:38;;;;;;;2.40;0.88;;;15.90;68.50;;;;;;5088975;28;20032;-60
2022/05/12 00:30:05;;;;;;;1.10;0.57;;;15.90;68.50;;;;;;5094135;28;20425;-60
2022/05/12 00:32:31;;;;;;;0.90;0.55;;;15.90;68.40;;;;;;5099371;28;20027;-64
2022/05/12 00:34:57;;;;;;;0.90;0.57;;;15.90;68.50;;;;;;5110885;28;20028;-64
2022/05/12 00:37:22;;;;;;;0.43;0.43;;;15.80;68.50;;;;;;5109991;28;20055;-63
2022/05/12 00:39:48;;;;;;;5.18;1.02;;;15.80;68.50;;;;;;5093343;28;20177;-64
2022/05/12 00:42:14;;;;;;;2.05;0.60;;;15.70;68.50;;;;;;5110122;28;20034;-60
2022/05/12 00:44:39;;;;;;;1.48;0.40;;;15.70;68.50;;;;;;5100152;28;20107;-64
2022/05/12 00:47:05;;;;;;;0.40;0.40;;;15.70;68.50;;;;;;5089746;28;20107;-60
2022/05/12 00:49:35;;;;;;;1.23;0.75;;;15.70;68.50;;;;;;5072234;28;20043;-61
2022/05/12 00:52:07;;;;;;;3.22;0.63;;;15.70;68.50;;;;;;5073637;28;20022;-61
2022/05/12 00:54:43;;;;;;;0.30;0.30;;;15.70;68.50;;;;;;5097818;28;20039;-60
2022/05/12 00:57:12;;;;;;;1.52;0.70;;;15.60;68.40;;;;;;5081922;28;20035;-60
2022/05/12 00:59:38;;;;;;;2.28;0.50;;;15.60;68.40;;;;;;5068962;28;20403;-60
2022/05/12 01:02:08;;;;;;;1.00;0.60;;;15.60;68.40;;;;;;5070653;28;20123;-61
2022/05/12 01:04:34;;;;;;;1.20;0.75;;;15.50;68.50;;;;;;5079741;28;20021;-60
2022/05/12 01:07:00;;;;;;;1.85;0.88;;;15.60;68.60;;;;;;5068581;28;20103;-60
2022/05/12 01:09:27;;;;;;;3.15;0.40;;;15.50;69.10;;;;;;5071698;28;20124;-60
2022/05/12 01:11:54;;;;;;;0.30;0.30;;;15.50;68.50;;;;;;5107656;28;20027;-60
2022/05/12 01:14:21;;;;;;;1.45;0.70;;;15.40;68.40;;;;;;5077261;28;20103;-60
2022/05/12 01:17:00;;;;;;;0.50;0.50;;;15.40;68.60;;;;;;5098085;28;20024;-60
2022/05/12 01:19:36;;;;;;;1.23;0.40;;;15.40;68.60;;;;;;5086995;28;20020;-60
2022/05/12 01:22:04;;;;;;;1.45;0.73;;;15.40;68.60;;;;;;5084419;28;20384;-60
2022/05/12 01:24:36;;;;;;;1.13;0.80;;;15.30;68.60;;;;;;5076576;28;20012;-61
2022/05/12 01:27:22;;;;;;;0.82;0.52;;;15.30;68.80;;;;;;5075678;28;20420;-60
2022/05/12 01:29:50;;;;;;;1.55;0.57;;;15.30;68.80;;;;;;5073063;28;20409;-60
2022/05/12 01:32:17;;;;;;;13.30;0.70;;;15.30;68.70;;;;;;5097210;28;20653;-60
2022/05/12 01:34:43;;;;;;;0.95;0.20;;;15.20;69.40;;;;;;5068127;28;20040;-61
2022/05/12 01:37:09;;;;;;;2.63;0.55;;;15.20;69.00;;;;;;5076957;28;20120;-61
2022/05/12 01:39:35;;;;;;;2.75;0.60;;;15.20;69.00;;;;;;5091862;28;20020;-60
2022/05/12 01:42:03;;;;;;;3.95;0.68;;;15.10;68.90;;;;;;5100633;28;20383;-64
2022/05/12 01:44:29;;;;;;;4.18;0.73;;;15.20;69.00;;;;;;5076255;28;20031;-64
2022/05/12 01:46:56;;;;;;;3.30;0.85;;;15.10;68.90;;;;;;5089192;28;20035;-64
2022/05/12 01:49:22;;;;;;;0.82;0.82;;;15.10;68.80;;;;;;5088351;28;20024;-64
2022/05/12 01:51:52;;;;;;;3.78;1.00;;;15.10;68.90;;;;;;5090507;28;20047;-61
2022/05/12 01:54:18;;;;;;;0.80;0.60;;;15.10;68.90;;;;;;5101975;28;20062;-64
2022/05/12 01:56:43;;;;;;;3.13;0.60;;;15.00;69.00;;;;;;5060521;28;20052;-64
2022/05/12 01:59:09;;;;;;;1.55;0.90;;;15.00;69.10;;;;;;5096769;28;20046;-64
2022/05/12 02:01:35;;;;;;;0.88;0.57;;;14.90;68.90;;;;;;5105660;28;20024;-64
2022/05/12 02:04:02;;;;;;;0.68;0.68;;;14.90;69.00;;;;;;5074253;28;20413;-64
2022/05/12 02:06:28;;;;;;;5.13;0.77;;;14.90;69.10;;;;;;5091038;28;20417;-64
2022/05/12 02:08:53;;;;;;;0.88;0.63;;;14.90;69.00;;;;;;5093597;28;20108;-64
2022/05/12 02:11:19;;;;;;;4.75;1.05;;;14.80;69.00;;;;;;5096962;28;20042;-64
2022/05/12 02:13:45;;;;;;;1.23;0.68;;;14.80;69.10;;;;;;5077085;28;20497;-64
2022/05/12 02:16:11;;;;;;;0.50;0.38;;;14.70;69.10;;;;;;5085150;28;20082;-64
2022/05/12 02:18:37;;;;;;;1.25;0.80;;;14.70;69.30;;;;;;5076843;28;20034;-64
2022/05/12 02:21:02;;;;;;;1.02;0.77;;;14.70;69.40;;;;;;5068325;28;20391;-64
2022/05/12 02:23:28;;;;;;;0.32;0.32;;;14.70;69.40;;;;;;5073947;28;20028;-64
2022/05/12 02:25:54;;;;;;;0.32;0.32;;;14.60;69.40;;;;;;5082943;28;20031;-64
2022/05/12 02:28:19;;;;;;;1.85;1.02;;;14.60;69.40;;;;;;5091585;28;20283;-64
2022/05/12 02:30:45;;;;;;;0.50;0.50;;;14.60;69.40;;;;;;5070922;28;20032;-64
2022/05/12 02:33:11;;;;;;;0.43;0.43;;;14.60;69.40;;;;;;5082722;28;20372;-64
2022/05/12 02:35:38;;;;;;;0.43;0.43;;;14.50;69.50;;;;;;5095956;28;20368;-64
2022/05/12 02:38:05;;;;;;;1.45;0.88;;;14.50;69.60;;;;;;5090778;28;20048;-64
2022/05/12 02:40:31;;;;;;;0.52;0.50;;;14.50;69.60;;;;;;5091900;28;20030;-64
2022/05/12 02:42:58;;;;;;;0.65;0.40;;;14.40;69.70;;;;;;5092437;28;20344;-64
2022/05/12 02:45:24;;;;;;;2.13;0.98;;;14.40;69.90;;;;;;5071750;28;20460;-64
2022/05/12 02:47:50;;;;;;;6.60;0.90;;;14.40;70.10;;;;;;5078630;28;20031;-64
2022/05/12 02:50:17;;;;;;;1.35;0.90;;;14.40;70.10;;;;;;5080131;28;20032;-64
2022/05/12 02:52:43;;;;;;;3.92;0.65;;;14.30;70.00;;;;;;5091201;28;20110;-63
2022/05/12 02:55:10;;;;;;;11.77;0.90;;;14.30;70.20;;;;;;5088963;28;20035;-64
2022/05/12 02:57:36;;;;;;;0.73;0.70;;;14.20;70.20;;;;;;5068626;28;20483;-64
2022/05/12 03:00:07;;;;;;;1.02;0.95;;;14.20;70.20;;;;;;5074797;28;20048;-64
2022/05/12 03:02:33;;;;;;;2.08;0.98;;;14.20;70.30;;;;;;5082249;28;20012;-64
2022/05/12 03:04:59;;;;;;;0.85;0.52;;;14.20;70.40;;;;;;5062995;28;20013;-64
2022/05/12 03:07:25;;;;;;;1.80;0.82;;;14.10;70.50;;;;;;5071745;28;20483;-61
2022/05/12 03:09:50;;;;;;;1.58;1.05;;;14.10;70.70;;;;;;5084063;28;20032;-61
2022/05/12 03:12:16;;;;;;;0.77;0.65;;;14.10;71.00;;;;;;5097070;28;20031;-61
2022/05/12 03:14:42;;;;;;;0.93;0.90;;;14.10;71.20;;;;;;5100556;28;20028;-60
2022/05/12 03:17:08;;;;;;;1.58;0.90;;;14.10;71.30;;;;;;5089820;28;20043;-61
2022/05/12 03:19:33;;;;;;;1.35;0.85;;;14.00;71.40;;;;;;5090289;28;20024;-64
2022/05/12 03:21:59;;;;;;;1.75;0.88;;;14.00;71.40;;;;;;5079099;28;20117;-61
2022/05/12 03:24:25;;;;;;;2.20;0.82;;;14.00;71.50;;;;;;5095684;28;20074;-60
2022/05/12 03:26:51;;;;;;;2.13;1.05;;;13.90;71.70;;;;;;5081425;28;20487;-60
2022/05/12 03:29:17;;;;;;;2.70;1.25;;;13.90;71.90;;;;;;5077277;28;20463;-64
2022/05/12 03:31:42;;;;;;;3.63;1.10;;;13.90;72.20;;;;;;5073295;28;20355;-64
2022/05/12 03:34:08;;;;;;;5.03;1.33;;;13.90;72.60;;;;;;5106739;28;20391;-64
2022/05/12 03:36:35;;;;;;;2.00;1.15;;;13.90;72.80;;;;;;5082025;28;20483;-63
2022/05/12 03:39:03;;;;;;;5.47;1.25;;;13.90;73.00;;;;;;5111378;28;20047;-64
2022/05/12 03:41:29;;;;;;;1.65;1.30;;;13.90;73.10;;;;;;5095792;28;20020;-64
2022/05/12 03:46:39;;;;;;;1.98;1.10;;;13.90;73.10;;;;;;5093958;28;20532;-64
2022/05/12 03:49:05;;;;;;;3.03;1.40;;;13.80;73.10;;;;;;5089911;28;20032;-61
2022/05/12 03:51:31;;;;;;;2.67;1.05;;;13.80;73.20;;;;;;5055040;28;20529;-60
2022/05/12 03:53:57;;;;;;;3.67;1.48;;;13.80;73.30;;;;;;5075080;28;20023;-60
2022/05/12 03:56:22;;;;;;;3.58;1.63;;;13.80;73.30;;;;;;5103593;28;20456;-60
2022/05/12 03:58:48;;;;;;;1.23;1.13;;;13.80;73.50;;;;;;5099547;28;20032;-60
2022/05/12 04:01:14;;;;;;;0.98;0.88;;;13.80;73.60;;;;;;5095767;28;20073;-60
2022/05/12 04:03:41;;;;;;;0.93;0.90;;;13.80;73.60;;;;;;5071280;28;20460;-60
2022/05/12 04:06:07;;;;;;;2.50;1.17;;;13.80;73.80;;;;;;5089528;28;20038;-61
2022/05/12 04:08:34;;;;;;;2.10;1.10;;;13.80;73.90;;;;;;5085920;28;20050;-60
2022/05/12 04:11:00;;;;;;;1.67;1.27;;;13.70;74.00;;;;;;5077345;28;20052;-61
2022/05/12 04:13:26;;;;;;;1.23;1.13;;;13.70;74.20;;;;;;5087401;28;20542;-64
2022/05/12 04:15:52;;;;;;;2.60;0.90;;;13.70;74.30;;;;;;5089746;28;20028;-64
2022/05/12 04:18:19;;;;;;;3.03;1.13;;;13.70;74.40;;;;;;5097583;28;20120;-64
2022/05/12 04:20:45;;;;;;;2.13;1.17;;;13.70;74.50;;;;;;5098930;28;20028;-60
2022/05/12 04:23:11;;;;;;;1.58;1.40;;;13.80;74.50;;;;;;5075994;28;20616;-60
2022/05/12 04:25:38;;;;;;;2.05;1.10;;;13.80;74.70;;;;;;5082318;28;20503;-60
2022/05/12 04:28:04;;;;;;;1.17;0.93;;;13.80;74.80;;;;;;5071942;28;20032;-64
2022/05/12 04:30:31;;;;;;;2.50;1.65;;;13.70;75.00;;;;;;5055527;28;20115;-64
2022/05/12 04:35:09;;;;;;;4.60;1.23;;;13.70;75.40;;;;;;5084904;28;20490;-63
2022/05/12 04:35:42;;;;;;;0.93;0.93;;;13.70;75.40;;;;;;5092304;28;20032;-64
2022/05/12 04:38:09;;;;;;;2.22;0.65;;;13.70;75.40;;;;;;5077070;28;20155;-64
2022/05/12 04:40:34;;;;;;;4.82;1.80;;;13.70;75.40;;;;;;5083222;28;20074;-64
2022/05/12 04:43:00;;;;;;;2.13;1.58;;;13.70;75.50;;;;;;5090813;28;20478;-64
2022/05/12 04:45:28;;;;;;;2.85;0.90;;;13.70;75.70;;;;;;5090437;28;20023;-64
2022/05/12 04:47:54;;;;;;;3.03;1.15;;;13.80;76.00;;;;;;5087852;28;20024;-60
2022/05/12 04:50:26;;;;;;;1.13;1.02;;;13.80;75.90;;;;;;5088553;28;20441;-60
2022/05/12 04:52:52;;;;;;;0.80;0.80;;;13.80;75.90;;;;;;5089929;28;20051;-64
2022/05/12 04:55:19;;;;;;;1.52;1.35;;;13.80;75.80;;;;;;5089694;28;20447;-64
2022/05/12 04:57:47;;;;;;;4.72;1.75;;;13.80;76.10;;;;;;5089399;28;20103;-64
2022/05/12 05:00:26;;;;;;;0.90;0.90;;;13.80;76.20;;;;;;5077619;28;20031;-64
2022/05/12 05:02:51;;;;;;;4.20;1.30;;;13.80;76.20;;;;;;5099337;28;20402;-64
2022/05/12 05:05:17;;;;;;;3.75;1.38;;;13.80;76.30;;;;;;5090525;28;20177;-64
2022/05/12 05:07:43;;;;;;;5.22;1.48;;;13.80;76.40;;;;;;5089260;28;20083;-64
2022/05/12 05:10:12;;;;;;;2.40;1.60;;;13.90;76.50;;;;;;5095236;28;20454;-63
2022/05/12 05:12:39;;;;;;;1.83;1.02;;;13.90;76.50;;;;;;5090026;28;20043;-63
2022/05/12 05:15:05;;;;;;;3.63;0.85;;;13.90;76.40;;;;;;5076882;28;20430;-63
2022/05/12 05:17:31;;;;;;;1.63;1.52;;;14.00;76.60;;;;;;5068904;28;20037;-63
2022/05/12 05:19:57;;;;;;;0.98;0.90;;;13.90;76.40;;;;;;5093411;28;20042;-63
2022/05/12 05:22:23;;;;;;;1.05;0.98;;;13.90;76.40;;;;;;5102794;28;20056;-63
2022/05/12 05:24:49;;;;;;;3.50;1.35;;;14.00;76.50;;;;;;5100967;28;20463;-63
2022/05/12 05:27:14;;;;;;;2.13;1.15;;;13.90;76.60;;;;;;5095289;28;20398;-63
2022/05/12 05:29:41;;;;;;;2.13;1.83;;;13.90;76.70;;;;;;5104488;28;20032;-63
2022/05/12 05:32:11;;;;;;;3.40;1.67;;;13.90;76.80;;;;;;5068983;28;20210;-63
2022/05/12 05:34:36;;;;;;;1.38;1.10;;;13.90;77.00;;;;;;5078764;28;20040;-63
2022/05/12 05:37:02;;;;;;;1.65;1.27;;;13.90;77.10;;;;;;5102005;28;20047;-63
2022/05/12 05:39:28;;;;;;;2.53;1.67;;;13.90;77.20;;;;;;5109535;28;20334;-63
2022/05/12 05:42:02;;;;;;;1.20;1.10;;;13.90;77.60;;;;;;5089432;28;20490;-63
2022/05/12 05:44:32;;;;;;;4.25;1.33;;;14.00;77.10;;;;;;5097250;28;20358;-63
2022/05/12 05:46:58;;;;;;;2.72;1.65;;;14.00;76.90;;;;;;5090690;28;20047;-63
2022/05/12 05:49:24;;;;;;;1.40;1.20;;;14.10;76.90;;;;;;5089146;28;20431;-63
2022/05/12 05:54:34;;;;;;;1.25;1.15;;;14.20;76.90;;;;;;5087028;28;20406;-63
2022/05/12 05:57:01;;;;;;;2.45;1.55;;;14.20;76.90;;;;;;5084701;28;20032;-63
2022/05/12 05:59:27;;;;;;;1.42;1.15;;;14.20;76.90;;;;;;5087206;28;20035;-63
2022/05/12 06:01:53;;;;;;;2.70;1.30;;;14.20;76.80;;;;;;5110111;28;20080;-63
2022/05/12 06:04:20;;;;;;;2.60;1.50;;;14.20;76.80;;;;;;5099560;28;20032;-63
2022/05/12 06:06:46;;;;;;;6.32;1.63;;;14.30;76.70;;;;;;5103250;28;20473;-63
2022/05/12 06:09:13;;;;;;;1.20;1.10;;;14.30;76.50;;;;;;5089352;28;20032;-63
2022/05/12 06:11:41;;;;;;;2.08;1.20;;;14.40;76.50;;;;;;5092586;28;20066;-63
2022/05/12 06:14:07;;;;;;;2.15;1.35;;;14.50;76.40;;;;;;5096947;28;20504;-63
2022/05/12 06:16:33;;;;;;;7.07;1.55;;;14.50;76.10;;;;;;5095354;28;20016;-63
2022/05/12 06:18:59;;;;;;;2.50;1.27;;;14.60;76.10;;;;;;5093201;28;20032;-63
2022/05/12 06:21:24;;;;;;;10.68;1.55;;;14.60;76.00;;;;;;5090708;28;20024;-63
2022/05/12 06:23:50;;;;;;;1.23;1.10;;;14.60;76.00;;;;;;5065702;28;20248;-63
2022/05/12 06:26:16;;;;;;;3.35;1.48;;;14.60;76.00;;;;;;5087023;28;20468;-63
2022/05/12 06:28:45;;;;;;;1.75;1.35;;;14.60;76.10;;;;;;5095025;28;20095;-63
2022/05/12 06:31:19;;;;;;;2.80;1.83;;;14.70;76.00;;;;;;5078379;28;20040;-63
2022/05/12 06:33:45;;;;;;;4.10;1.10;;;14.60;75.90;;;;;;5093335;28;20027;-63
2022/05/12 06:36:11;;;;;;;3.55;1.70;;;14.70;76.00;;;;;;5107551;28;20032;-63
2022/05/12 06:38:38;;;;;;;1.65;1.10;;;14.70;75.80;;;;;;5068768;28;20445;-63
2022/05/12 06:41:04;;;;;;;2.45;1.58;;;14.70;75.70;;;;;;5079389;28;20073;-63
2022/05/12 06:43:30;;;;;;;1.88;1.55;;;14.70;75.90;;;;;;5095474;28;20028;-63
2022/05/12 06:45:56;;;;;;;3.30;1.98;;;14.70;75.90;;;;;;5090051;28;20077;-63
2022/05/12 06:48:25;;;;;;;1.95;1.35;;;14.70;75.90;;;;;;5099116;28;20050;-63
2022/05/12 06:50:51;;;;;;;2.80;1.75;;;14.80;75.80;;;;;;5095815;28;20025;-63
2022/05/12 06:53:17;;;;;;;4.18;1.80;;;14.80;75.60;;;;;;5084539;28;20195;-64
2022/05/12 06:55:43;;;;;;;2.53;1.75;;;14.90;75.50;;;;;;5097445;28;20032;-64
2022/05/12 06:58:14;;;;;;;5.72;1.83;;;14.90;75.20;;;;;;5090857;28;20093;-61
2022/05/12 07:00:40;;;;;;;5.75;1.63;;;15.00;75.20;;;;;;5081631;28;20048;-61
2022/05/12 07:03:06;;;;;;;1.40;1.30;;;15.00;75.10;;;;;;5073727;28;20086;-61
2022/05/12 07:05:32;;;;;;;2.15;1.95;;;15.10;74.90;;;;;;5089439;28;20027;-60
2022/05/12 07:07:58;;;;;;;1.85;1.73;;;15.10;74.70;;;;;;5085593;28;20081;-62
2022/05/12 07:10:26;;;;;;;4.63;1.85;;;15.10;74.50;;;;;;5084684;28;20032;-58
2022/05/12 07:12:52;;;;;;;1.25;1.15;;;15.20;74.10;;;;;;5087756;28;20376;-59
2022/05/12 07:15:18;;;;;;;3.03;1.17;;;15.20;74.10;;;;;;5089993;28;21011;-59
2022/05/12 07:17:44;;;;;;;1.48;1.17;;;15.30;73.90;;;;;;5074604;28;20033;-59
2022/05/12 07:28:26;;;;;;;1.67;1.42;;;15.60;72.50;;;;;;5070917;28;20055;-59
2022/05/12 07:31:01;;;;;;;2.55;1.33;;;15.60;72.50;;;;;;5081485;28;20036;-59
2022/05/12 07:33:32;;;;;;;2.67;1.95;;;15.60;72.60;;;;;;5103581;28;20031;-59
2022/05/12 07:36:00;;;;;;;4.57;2.10;;;15.70;72.50;;;;;;5070572;28;20024;-59
2022/05/12 07:38:26;;;;;;;2.30;1.33;;;15.80;72.10;;;;;;5064529;28;20217;-60
2022/05/12 07:40:53;;;;;;;3.85;1.60;;;15.90;71.60;;;;;;5092821;28;20043;-59
2022/05/12 07:43:20;;;;;;;2.25;1.20;;;15.90;71.60;;;;;;5093273;28;20024;-59
2022/05/12 07:45:46;;;;;;;1.00;1.00;;;16.00;70.20;;;;;;5086952;28;20056;-59
2022/05/12 07:48:12;;;;;;;1.60;1.50;;;16.00;70.00;;;;;;5084573;28;20060;-60
2022/05/12 07:50:39;;;;;;;2.13;1.17;;;15.90;69.90;;;;;;5071673;28;20040;-60
2022/05/12 07:53:06;;;;;;;3.05;2.05;;;16.00;70.00;;;;;;5072872;28;20169;-59
2022/05/12 07:55:32;;;;;;;3.70;1.92;;;16.00;69.20;;;;;;5055558;28;20462;-59
2022/05/12 07:57:59;;;;;;;2.17;1.17;;;16.00;69.30;;;;;;5073780;28;20028;-60
2022/05/12 08:00:25;;;;;;;2.78;1.20;;;16.10;69.10;;;;;;5083208;28;20101;-59
2022/05/12 08:02:51;;;;;;;2.17;1.40;;;16.10;69.20;;;;;;5080973;28;20808;-59
2022/05/12 08:05:18;;;;;;;3.42;1.65;;;16.10;69.00;;;;;;5105869;28;20791;-60
2022/05/12 08:07:45;;;;;;;1.25;1.15;;;16.20;68.60;;;;;;5081683;28;20032;-59
2022/05/12 08:10:11;;;;;;;1.17;0.90;;;16.30;67.90;;;;;;5088535;28;20100;-59
2022/05/12 08:12:37;;;;;;;2.70;1.35;;;16.30;67.60;;;;;;5089134;28;20033;-60
2022/05/12 08:15:05;;;;;;;1.67;1.30;;;16.40;67.30;;;;;;5089803;28;20047;-63
2022/05/12 08:17:30;;;;;;;2.33;1.40;;;16.50;66.80;;;;;;5090976;28;20043;-63
2022/05/12 08:19:57;;;;;;;2.92;0.90;;;16.50;66.60;;;;;;5090700;28;20036;-63
2022/05/12 08:22:24;;;;;;;1.75;1.40;;;16.50;66.40;;;;;;5089963;28;20209;-63
2022/05/12 08:24:50;;;;;;;1.85;1.55;;;16.50;66.60;;;;;;5072674;28;20040;-64
2022/05/12 08:27:16;;;;;;;3.33;1.33;;;16.60;65.90;;;;;;5058073;28;20073;-63
2022/05/12 08:29:41;;;;;;;2.45;1.33;;;16.70;64.60;;;;;;5088418;28;20103;-64
2022/05/12 08:32:07;;;;;;;3.90;1.65;;;16.70;63.20;;;;;;5093491;28;20512;-60
2022/05/12 08:34:33;;;;;;;1.25;0.93;;;16.70;63.20;;;;;;5089480;28;20043;-60
2022/05/12 08:36:59;;;;;;;2.78;1.52;;;16.70;63.00;;;;;;5086311;28;20379;-60
2022/05/12 08:39:25;;;;;;;1.65;1.30;;;16.80;63.20;;;;;;5086933;28;20155;-60
2022/05/12 08:41:59;;;;;;;2.97;1.65;;;16.90;62.50;;;;;;5071449;28;20028;-59
2022/05/12 08:44:26;;;;;;;3.38;1.38;;;17.00;62.30;;;;;;5089747;28;20028;-66
2022/05/12 08:46:57;;;;;;;8.35;1.23;;;17.10;62.70;;;;;;5078389;28;20035;-60
2022/05/12 08:49:32;;;;;;;1.17;1.02;;;17.10;62.40;;;;;;5072896;28;20055;-61
2022/05/12 08:52:22;;;;;;;3.10;1.55;;;17.20;62.40;;;;;;5069285;28;20463;-60
2022/05/12 08:54:54;;;;;;;0.90;0.80;;;17.30;61.40;;;;;;5069588;28;20523;-60
2022/05/12 08:57:32;;;;;;;0.95;0.80;;;17.30;61.30;;;;;;5099297;28;20040;-62
2022/05/12 09:00:00;;;;;;;1.85;1.20;;;17.40;61.10;;;;;;5077131;28;20036;-60
2022/05/12 09:03:00;;;;;;;2.53;0.70;;;17.50;59.80;;;;;;5089513;28;20058;-60
2022/05/12 09:05:34;;;;;;;1.10;1.05;;;17.50;58.30;;;;;;5085398;28;20017;-60
2022/05/12 09:08:25;;;;;;;1.58;0.90;;;17.50;59.00;;;;;;5074662;28;20028;-59
2022/05/12 09:11:14;;;;;;;0.98;0.88;;;17.60;59.00;;;;;;5066279;28;20135;-60
2022/05/12 09:13:45;;;;;;;0.90;0.82;;;17.60;58.00;;;;;;5082271;28;20040;-59
2022/05/12 09:16:18;;;;;;;1.55;1.35;;;17.60;58.00;;;;;;5072983;28;20043;-60
2022/05/12 09:18:45;;;;;;;0.85;0.60;;;17.70;57.40;;;;;;5086437;28;20378;-60
2022/05/12 09:21:23;;;;;;;1.30;1.20;;;17.80;58.00;;;;;;5085983;28;20040;-60
2022/05/12 09:23:49;;;;;;;2.15;1.10;;;18.00;57.30;;;;;;5076795;28;20028;-60
2022/05/12 09:26:33;;;;;;;2.25;1.05;;;18.10;56.70;;;;;;5088622;28;20355;-60
2022/05/12 09:29:21;;;;;;;1.58;1.15;;;18.10;55.80;;;;;;5086992;28;20032;-60
2022/05/12 09:32:02;;;;;;;1.60;1.10;;;18.10;55.70;;;;;;5089017;28;20800;-60
2022/05/12 09:34:32;;;;;;;9.73;1.45;;;18.00;54.70;;;;;;5087503;28;20028;-59
2022/05/12 09:37:16;;;;;;;1.13;0.88;;;17.90;55.10;;;;;;5087996;28;20027;-59
2022/05/12 09:40:17;;;;;;;1.27;1.10;;;17.90;54.70;;;;;;5082556;28;20169;-59
2022/05/12 09:42:47;;;;;;;1.92;0.85;;;17.80;54.70;;;;;;5064887;28;20031;-59
2022/05/12 09:45:15;;;;;;;0.70;0.70;;;17.80;55.10;;;;;;5087751;28;20031;-60
2022/05/12 09:47:42;;;;;;;1.02;0.93;;;17.90;55.00;;;;;;5070378;28;20044;-61
2022/05/12 09:50:20;;;;;;;3.13;1.20;;;18.00;54.90;;;;;;5082310;28;20150;-61
2022/05/12 09:52:58;;;;;;;0.95;0.80;;;18.10;54.40;;;;;;5088736;28;20075;-59
2022/05/12 09:55:29;;;;;;;1.58;0.70;;;18.40;52.70;;;;;;5080599;28;20040;-60
2022/05/12 09:58:05;;;;;;;0.60;0.60;;;18.50;52.20;;;;;;5073912;28;20029;-60
2022/05/12 10:00:32;;;;;;;2.60;0.90;;;18.60;51.20;;;;;;5079147;28;20032;-59
2022/05/12 10:09:05;;;;;;;0.93;0.88;;;18.80;50.30;;;;;;5086507;28;20039;-60
2022/05/12 10:11:41;;;;;;;5.47;0.85;;;19.00;50.20;;;;;;5085001;28;20024;-59
2022/05/12 10:14:37;;;;;;;0.75;0.75;;;19.00;49.60;;;;;;5077729;28;20333;-60
2022/05/12 10:17:12;;;;;;;0.95;0.90;;;19.00;49.90;;;;;;5035259;28;20055;-59
2022/05/12 10:19:40;;;;;;;1.20;0.80;;;19.10;49.60;;;;;;5082324;28;20028;-59
2022/05/12 10:22:14;;;;;;;0.80;0.70;;;19.20;49.30;;;;;;5085527;28;20066;-60
2022/05/12 10:25:10;;;;;;;0.73;0.70;;;19.40;49.20;;;;;;5077830;28;20059;-63
2022/05/12 10:28:02;;;;;;;1.27;0.60;;;19.80;55.70;;;;;;5084952;28;20040;-64
2022/05/12 10:30:33;;;;;;;0.65;0.60;;;19.60;46.40;;;;;;5085197;28;20117;-63
2022/05/12 10:33:14;;;;;;;0.50;0.50;;;;;;;;;;5088368;28;20032;-63
2022/05/12 10:35:53;;;;;;;0.70;0.70;;;19.70;45.80;;;;;;5088648;28;20481;-63
2022/05/12 10:38:27;;;;;;;0.45;0.40;;;19.70;46.40;;;;;;5075620;28;20099;-64
2022/05/12 10:41:02;;;;;;;0.50;0.50;;;19.70;46.00;;;;;;5085562;28;20020;-63
2022/05/12 10:44:13;;;;;;;0.70;0.65;;;19.80;46.50;;;;;;5087867;28;20116;-62
2022/05/12 10:46:45;;;;;;;4.93;1.30;;;19.90;46.60;;;;;;5086509;28;20093;-63
2022/05/12 10:49:22;;;;;;;0.70;0.70;;;20.10;45.40;;;;;;5081825;28;20059;-63
2022/05/12 10:51:59;;;;;;;1.05;0.80;;;20.30;43.40;;;;;;5096997;28;20028;-63
2022/05/12 10:54:33;;;;;;;0.77;0.77;;;20.20;43.50;;;;;;5089437;28;20127;-62
2022/05/12 10:57:03;;;;;;;2.13;0.80;;;20.20;44.40;;;;;;5080789;28;20031;-63
2022/05/12 10:59:44;;;;;;;1.67;0.95;;;20.20;44.50;;;;;;5079607;28;20378;-62
2022/05/12 11:02:35;;;;;;;0.52;0.52;;;20.10;44.70;;;;;;5085295;28;20020;-62
2022/05/12 11:05:29;;;;;;;0.63;0.55;;;20.30;44.00;;;;;;5075711;28;20487;-63
2022/05/12 11:08:19;;;;;;;0.82;0.68;;;20.30;45.00;;;;;;5067819;28;20071;-63
2022/05/12 11:10:51;;;;;;;0.55;0.55;;;20.40;44.00;;;;;;5080378;28;20032;-63
2022/05/12 11:13:23;;;;;;;2.22;1.10;;;20.40;43.90;;;;;;5082366;28;20020;-63
2022/05/12 11:16:00;;;;;;;0.60;0.60;;;20.40;44.10;;;;;;5085668;28;20032;-63
2022/05/12 11:18:43;;;;;;;0.50;0.50;;;20.50;44.20;;;;;;5073739;28;20592;-63
2022/05/12 11:21:18;;;;;;;;;;;20.60;44.00;;;;;;5072180;28;20082;-60
2022/05/12 11:24:04;;;;;;;2.63;0.88;;;20.50;43.90;;;;;;5076964;28;20039;-61
2022/05/12 11:26:51;;;;;;;0.50;0.50;;;20.40;44.40;;;;;;5071175;28;20075;-63
2022/05/12 11:29:48;;;;;;;0.60;0.60;;;20.40;43.90;;;;;;5072157;28;20030;-60
2022/05/12 11:32:37;;;;;;;0.52;0.52;;;20.50;43.60;;;;;;5074683;28;20073;-59
2022/05/12 11:35:38;;;;;;;0.57;0.52;;;20.60;44.00;;;;;;5083584;28;20119;-60
2022/05/12 11:38:06;;;;;;;1.52;0.80;;;20.70;42.80;;;;;;5082200;28;20158;-60
2022/05/12 11:40:43;;;;;;;0.47;0.47;;;20.60;43.10;;;;;;5087883;28;20051;-63
2022/05/12 11:46:34;;;;;;;0.55;0.40;;;20.80;43.00;;;;;;5087226;28;20074;-59
2022/05/12 11:49:12;;;;;;;0.55;0.45;;;20.90;42.80;;;;;;5075616;28;20044;-63
2022/05/12 11:51:55;;;;;;;0.40;0.40;;;21.00;42.30;;;;;;5076669;28;20065;-63
2022/05/12 11:54:34;;;;;;;0.50;0.50;;;20.90;41.10;;;;;;5088727;28;20032;-62
2022/05/12 11:57:02;;;;;;;0.70;0.60;;;21.00;41.80;;;;;;5086929;28;20024;-62
2022/05/12 12:00:33;;;;;;;0.55;0.50;;;20.90;39.90;;;;;;5082174;27;20149;-62
2022/05/12 12:03:19;;;;;;;0.40;0.40;;;20.90;40.00;;;;;;5084448;28;20056;-63
2022/05/12 12:05:50;;;;;;;0.38;0.38;;;20.90;40.60;;;;;;5086170;28;20024;-63
2022/05/12 12:08:31;;;;;;;0.43;0.43;;;21.00;41.30;;;;;;5084785;28;20842;-63
2022/05/12 12:11:15;;;;;;;0.75;0.60;;;21.20;40.90;;;;;;5082868;28;20368;-63
2022/05/12 12:13:45;;;;;;;1.85;0.93;;;21.50;39.60;;;;;;5093380;28;20119;-63
2022/05/12 12:16:20;;;;;;;0.55;0.50;;;21.50;38.70;;;;;;5084455;28;20040;-60
2022/05/12 12:18:52;;;;;;;0.68;0.68;;;21.40;39.30;;;;;;5071450;28;20028;-63
2022/05/12 12:21:42;;;;;;;0.35;0.35;;;21.50;39.70;;;;;;5083164;28;20058;-63
2022/05/12 12:24:20;;;;;;;0.98;0.77;;;21.70;39.20;;;;;;5085584;28;20129;-63
2022/05/12 12:26:50;;;;;;;0.82;0.80;;;21.70;37.80;;;;;;5081970;28;20479;-63
2022/05/12 12:29:43;;;;;;;0.82;0.80;;;21.70;38.00;;;;;;5078226;28;20459;-64
2022/05/12 12:32:31;;;;;;;0.60;0.60;;;21.60;38.30;;;;;;5084265;28;20390;-63
2022/05/12 12:35:25;;;;;;;0.50;0.50;;;21.70;38.20;;;;;;5068007;28;20017;-63
2022/05/12 12:37:52;;;;;;;2.15;0.50;;;21.70;38.70;;;;;;5078087;28;20124;-63
2022/05/12 12:40:32;;;;;;;0.50;0.40;;;21.80;38.60;;;;;;5085639;28;20016;-60
2022/05/12 12:43:20;;;;;;;0.45;0.40;;;22.00;38.40;;;;;;5085477;28;20025;-60
2022/05/12 12:45:50;;;;;;;2.83;0.63;;;22.10;37.40;;;;;;5082748;28;20112;-59
2022/05/12 12:48:24;;;;;;;1.48;0.60;;;22.20;37.70;;;;;;5117403;27;20028;-63
2022/05/12 12:50:52;;;;;;;1.02;0.50;;;22.30;37.40;;;;;;5069524;28;20522;-63
2022/05/12 12:56:30;;;;;;;0.80;0.80;;;22.40;36.90;;;;;;5085667;28;20240;-63
2022/05/12 12:56:30;;;;;;;1.10;0.90;;;22.40;36.70;;;;;;5085093;28;20028;-63
2022/05/12 12:59:03;;;;;;;0.90;0.50;;;22.50;36.90;;;;;;5085342;28;20095;-63
2022/05/12 13:01:43;;;;;;;0.52;0.52;;;22.60;36.90;;;;;;5085142;28;20028;-60
2022/05/12 13:04:10;;;;;;;1.48;0.80;;;22.70;36.70;;;;;;5084417;28;20024;-60
2022/05/12 13:06:37;;;;;;;0.60;0.60;;;22.80;36.70;;;;;;5085193;28;20055;-60
2022/05/12 13:09:12;;;;;;;2.53;0.95;;;22.80;36.90;;;;;;5086111;28;20489;-60
2022/05/12 13:11:41;;;;;;;0.40;0.40;;;22.80;36.00;;;;;;5072448;28;20031;-59
2022/05/12 13:14:09;;;;;;;1.88;0.68;;;22.60;36.30;;;;;;5071672;28;20032;-59
2022/05/12 13:16:40;;;;;;;0.50;0.50;;;22.60;36.70;;;;;;5072145;28;20040;-60
2022/05/12 13:19:08;;;;;;;3.15;0.85;;;22.60;35.40;;;;;;5071892;28;20025;-59
2022/05/12 13:21:44;;;;;;;0.50;0.50;;;22.70;35.10;;;;;;5069432;28;20031;-60
2022/05/12 13:24:23;;;;;;;2.33;0.93;;;22.60;35.20;;;;;;5124055;27;20197;-59
2022/05/12 13:26:59;;;;;;;1.88;0.50;;;22.60;35.00;;;;;;5106737;28;20036;-59
2022/05/12 13:29:30;;;;;;;0.50;0.50;;;22.60;35.20;;;;;;5107341;28;20036;-59